Terminal Aerodrome Forecast
Issued by NWS

Home | Current Version | Previous Version | Text Only | Print | Product List | Glossary On
Versions: 1 2 3 4 5 6 7 8 9 10 11 12 13 14
295
FTUS42 TJSJ 281721 CCA
TAFJSJ
TAF COR
TJSJ 281721Z 2818/2918 10012KT P6SM VCSH SCT030 BKN060
     FM282330 VRB05KT P6SM FEW030 BKN080
     FM291330 09012KT P6SM FEW030 BKN080=

USA.gov is the U.S. government's official web portal to all federal, state and local government web resources and services.